sensor_id;sensor_type;location;lat;lon;timestamp;temperature;humidity
14521;DHT22;7347;50.844;4.490;2023-04-30T07:29:34;18.70;99.90
14521;DHT22;7347;50.844;4.490;2023-04-30T07:32:01;19.30;99.90
14521;DHT22;7347;50.844;4.490;2023-04-30T07:34:28;19.00;99.90
14521;DHT22;7347;50.844;4.490;2023-04-30T07:36:55;18.50;99.90
14521;DHT22;7347;50.844;4.490;2023-04-30T07:39:22;18.90;99.90
14521;DHT22;7347;50.844;4.490;2023-04-30T07:41:49;19.20;99.90
14521;DHT22;7347;50.844;4.490;2023-04-30T07:44:15;19.80;99.90
14521;DHT22;7347;50.844;4.490;2023-04-30T07:46:44;19.80;99.90
14521;DHT22;7347;50.844;4.490;2023-04-30T07:49:11;19.60;99.90
14521;DHT22;7347;50.844;4.490;2023-04-30T07:51:38;21.00;99.90
14521;DHT22;7347;50.844;4.490;2023-04-30T07:54:07;21.80;99.90
14521;DHT22;7347;50.844;4.490;2023-04-30T07:56:33;21.60;99.90
14521;DHT22;7347;50.844;4.490;2023-04-30T07:59:00;21.60;99.90
14521;DHT22;7347;50.844;4.490;2023-04-30T08:01:27;21.20;99.90
14521;DHT22;7347;50.844;4.490;2023-04-30T08:03:56;21.10;99.90
14521;DHT22;7347;50.844;4.490;2023-04-30T08:06:23;21.90;99.90
14521;DHT22;7347;50.844;4.490;2023-04-30T08:08:49;22.30;99.90
14521;DHT22;7347;50.844;4.490;2023-04-30T08:11:16;22.90;99.40
14521;DHT22;7347;50.844;4.490;2023-04-30T08:13:44;23.10;99.10
14521;DHT22;7347;50.844;4.490;2023-04-30T08:16:11;23.60;98.80
14521;DHT22;7347;50.844;4.490;2023-04-30T08:18:38;24.40;98.30
14521;DHT22;7347;50.844;4.490;2023-04-30T08:21:10;24.60;97.90
14521;DHT22;7347;50.844;4.490;2023-04-30T08:23:37;23.60;98.40
14521;DHT22;7347;50.844;4.490;2023-04-30T08:26:04;22.80;99.30
14521;DHT22;7347;50.844;4.490;2023-04-30T08:28:31;22.40;98.90
14521;DHT22;7347;50.844;4.490;2023-04-30T08:30:58;21.60;99.70
14521;DHT22;7347;50.844;4.490;2023-04-30T08:33:25;21.60;99.60
14521;DHT22;7347;50.844;4.490;2023-04-30T08:35:52;21.90;99.60
14521;DHT22;7347;50.844;4.490;2023-04-30T08:38:21;22.60;99.40
14521;DHT22;7347;50.844;4.490;2023-04-30T08:40:51;22.70;98.60
14521;DHT22;7347;50.844;4.490;2023-04-30T08:43:19;22.10;99.10
14521;DHT22;7347;50.844;4.490;2023-04-30T08:45:48;21.70;99.20
14521;DHT22;7347;50.844;4.490;2023-04-30T08:48:18;21.40;99.90
14521;DHT22;7347;50.844;4.490;2023-04-30T08:50:46;21.20;99.50
14521;DHT22;7347;50.844;4.490;2023-04-30T08:53:14;21.30;99.90
14521;DHT22;7347;50.844;4.490;2023-04-30T08:55:43;22.10;99.10
14521;DHT22;7347;50.844;4.490;2023-04-30T08:58:10;21.70;99.50
14521;DHT22;7347;50.844;4.490;2023-04-30T09:00:38;21.50;99.50
14521;DHT22;7347;50.844;4.490;2023-04-30T09:03:05;21.70;99.70
14521;DHT22;7347;50.844;4.490;2023-04-30T09:05:33;21.30;99.20
14521;DHT22;7347;50.844;4.490;2023-04-30T09:08:01;20.70;99.90
14521;DHT22;7347;50.844;4.490;2023-04-30T09:10:31;20.60;99.90
14521;DHT22;7347;50.844;4.490;2023-04-30T09:13:00;20.10;99.90
14521;DHT22;7347;50.844;4.490;2023-04-30T09:15:27;20.00;99.90
14521;DHT22;7347;50.844;4.490;2023-04-30T09:18:05;19.80;99.90
14521;DHT22;7347;50.844;4.490;2023-04-30T09:20:33;20.30;99.90
14521;DHT22;7347;50.844;4.490;2023-04-30T09:23:07;20.70;99.90
14521;DHT22;7347;50.844;4.490;2023-04-30T09:25:38;20.50;99.80
14521;DHT22;7347;50.844;4.490;2023-04-30T09:28:08;20.30;99.90
14521;DHT22;7347;50.844;4.490;2023-04-30T09:30:36;20.30;99.50
14521;DHT22;7347;50.844;4.490;2023-04-30T09:33:04;20.30;99.00
14521;DHT22;7347;50.844;4.490;2023-04-30T09:35:32;20.20;99.70
14521;DHT22;7347;50.844;4.490;2023-04-30T09:37:59;19.20;98.90
14521;DHT22;7347;50.844;4.490;2023-04-30T09:40:35;18.90;99.90
14521;DHT22;7347;50.844;4.490;2023-04-30T09:43:02;18.90;99.90
14521;DHT22;7347;50.844;4.490;2023-04-30T09:45:41;18.80;99.90
14521;DHT22;7347;50.844;4.490;2023-04-30T09:48:09;18.70;99.90
14521;DHT22;7347;50.844;4.490;2023-04-30T09:50:37;18.70;99.90
14521;DHT22;7347;50.844;4.490;2023-04-30T09:53:05;18.50;99.90
14521;DHT22;7347;50.844;4.490;2023-04-30T09:55:34;18.50;99.90
14521;DHT22;7347;50.844;4.490;2023-04-30T09:58:04;18.00;99.90
14521;DHT22;7347;50.844;4.490;2023-04-30T10:00:32;18.00;99.90
14521;DHT22;7347;50.844;4.490;2023-04-30T10:03:04;18.20;99.90
14521;DHT22;7347;50.844;4.490;2023-04-30T10:05:35;18.00;99.90
14521;DHT22;7347;50.844;4.490;2023-04-30T10:08:04;18.10;99.60
14521;DHT22;7347;50.844;4.490;2023-04-30T10:10:33;17.90;99.90
14521;DHT22;7347;50.844;4.490;2023-04-30T10:13:03;18.10;99.90
14521;DHT22;7347;50.844;4.490;2023-04-30T10:15:34;18.30;99.90
14521;DHT22;7347;50.844;4.490;2023-04-30T10:18:09;18.30;99.80
14521;DHT22;7347;50.844;4.490;2023-04-30T10:20:37;18.20;99.90
14521;DHT22;7347;50.844;4.490;2023-04-30T10:23:05;18.10;99.90
14521;DHT22;7347;50.844;4.490;2023-04-30T10:25:34;18.10;99.90
14521;DHT22;7347;50.844;4.490;2023-04-30T10:28:01;18.20;99.90
14521;DHT22;7347;50.844;4.490;2023-04-30T10:30:28;18.20;99.90
14521;DHT22;7347;50.844;4.490;2023-04-30T10:33:08;18.30;99.90
14521;DHT22;7347;50.844;4.490;2023-04-30T10:35:45;18.40;99.90
14521;DHT22;7347;50.844;4.490;2023-04-30T10:38:17;18.70;99.60
14521;DHT22;7347;50.844;4.490;2023-04-30T10:40:46;18.60;99.90
14521;DHT22;7347;50.844;4.490;2023-04-30T10:43:16;18.30;99.90
14521;DHT22;7347;50.844;4.490;2023-04-30T10:45:43;18.30;99.90
14521;DHT22;7347;50.844;4.490;2023-04-30T10:48:14;18.40;99.90
14521;DHT22;7347;50.844;4.490;2023-04-30T10:50:50;18.40;99.90
14521;DHT22;7347;50.844;4.490;2023-04-30T10:53:19;18.50;99.90
14521;DHT22;7347;50.844;4.490;2023-04-30T10:55:51;18.60;99.80
14521;DHT22;7347;50.844;4.490;2023-04-30T10:58:30;18.70;99.10
14521;DHT22;7347;50.844;4.490;2023-04-30T11:01:04;18.80;99.10
14521;DHT22;7347;50.844;4.490;2023-04-30T11:03:34;18.80;99.00
14521;DHT22;7347;50.844;4.490;2023-04-30T11:06:08;18.50;99.40
14521;DHT22;7347;50.844;4.490;2023-04-30T11:08:37;18.50;99.40
14521;DHT22;7347;50.844;4.490;2023-04-30T11:11:08;18.10;99.40
14521;DHT22;7347;50.844;4.490;2023-04-30T11:13:38;18.10;99.80
14521;DHT22;7347;50.844;4.490;2023-04-30T11:16:06;18.10;98.80
14521;DHT22;7347;50.844;4.490;2023-04-30T11:18:40;17.90;99.30
14521;DHT22;7347;50.844;4.490;2023-04-30T11:21:08;17.70;98.90
14521;DHT22;7347;50.844;4.490;2023-04-30T11:23:35;17.80;99.10
14521;DHT22;7347;50.844;4.490;2023-04-30T11:26:02;18.00;99.40
14521;DHT22;7347;50.844;4.490;2023-04-30T11:28:31;18.00;99.90
14521;DHT22;7347;50.844;4.490;2023-04-30T11:31:00;18.10;99.10
14521;DHT22;7347;50.844;4.490;2023-04-30T11:33:29;18.00;99.20
14521;DHT22;7347;50.844;4.490;2023-04-30T11:35:59;17.80;99.40
14521;DHT22;7347;50.844;4.490;2023-04-30T11:38:28;17.60;99.00
14521;DHT22;7347;50.844;4.490;2023-04-30T11:40:55;17.50;99.60
14521;DHT22;7347;50.844;4.490;2023-04-30T11:43:24;17.60;99.30
14521;DHT22;7347;50.844;4.490;2023-04-30T11:46:12;17.50;99.30
14521;DHT22;7347;50.844;4.490;2023-04-30T11:48:40;17.40;99.20
14521;DHT22;7347;50.844;4.490;2023-04-30T11:51:16;17.70;99.50
14521;DHT22;7347;50.844;4.490;2023-04-30T11:53:45;17.90;99.80
14521;DHT22;7347;50.844;4.490;2023-04-30T11:56:13;18.20;99.30
14521;DHT22;7347;50.844;4.490;2023-04-30T11:58:40;18.20;99.40
14521;DHT22;7347;50.844;4.490;2023-04-30T12:01:07;18.00;99.50
14521;DHT22;7347;50.844;4.490;2023-04-30T12:03:40;18.10;99.50
14521;DHT22;7347;50.844;4.490;2023-04-30T12:06:09;17.90;99.20
14521;DHT22;7347;50.844;4.490;2023-04-30T12:08:40;18.00;99.10
14521;DHT22;7347;50.844;4.490;2023-04-30T12:11:18;18.00;98.30
14521;DHT22;7347;50.844;4.490;2023-04-30T12:13:49;18.10;99.30
14521;DHT22;7347;50.844;4.490;2023-04-30T12:16:16;18.50;98.80
14521;DHT22;7347;50.844;4.490;2023-04-30T12:18:44;18.60;98.80
14521;DHT22;7347;50.844;4.490;2023-04-30T12:21:11;18.40;98.20
14521;DHT22;7347;50.844;4.490;2023-04-30T12:23:40;18.40;98.60
14521;DHT22;7347;50.844;4.490;2023-04-30T12:26:07;18.30;98.40
14521;DHT22;7347;50.844;4.490;2023-04-30T12:28:34;18.40;98.40
14521;DHT22;7347;50.844;4.490;2023-04-30T12:31:01;18.50;98.80
14521;DHT22;7347;50.844;4.490;2023-04-30T12:33:31;18.70;98.50
14521;DHT22;7347;50.844;4.490;2023-04-30T12:35:58;18.80;98.50
14521;DHT22;7347;50.844;4.490;2023-04-30T12:38:25;18.70;97.80
14521;DHT22;7347;50.844;4.490;2023-04-30T12:40:53;18.70;98.00
14521;DHT22;7347;50.844;4.490;2023-04-30T12:43:20;18.80;97.10
14521;DHT22;7347;50.844;4.490;2023-04-30T12:45:48;18.70;97.50
14521;DHT22;7347;50.844;4.490;2023-04-30T12:48:17;18.60;97.40
14521;DHT22;7347;50.844;4.490;2023-04-30T12:50:51;18.60;97.30
14521;DHT22;7347;50.844;4.490;2023-04-30T12:53:19;18.50;97.30
14521;DHT22;7347;50.844;4.490;2023-04-30T12:56:09;18.70;98.30
14521;DHT22;7347;50.844;4.490;2023-04-30T12:58:37;18.70;97.80
14521;DHT22;7347;50.844;4.490;2023-04-30T13:01:08;18.70;97.80
14521;DHT22;7347;50.844;4.490;2023-04-30T13:03:36;18.70;97.50
14521;DHT22;7347;50.844;4.490;2023-04-30T13:06:03;18.80;98.00
14521;DHT22;7347;50.844;4.490;2023-04-30T13:08:31;19.00;96.80
14521;DHT22;7347;50.844;4.490;2023-04-30T13:10:58;18.80;97.40
14521;DHT22;7347;50.844;4.490;2023-04-30T13:13:27;18.70;96.90
14521;DHT22;7347;50.844;4.490;2023-04-30T13:15:54;18.60;97.30
14521;DHT22;7347;50.844;4.490;2023-04-30T13:18:21;18.50;98.30
14521;DHT22;7347;50.844;4.490;2023-04-30T13:20:48;18.70;97.70
14521;DHT22;7347;50.844;4.490;2023-04-30T13:23:14;18.80;97.70
14521;DHT22;7347;50.844;4.490;2023-04-30T13:25:41;18.90;97.40
14521;DHT22;7347;50.844;4.490;2023-04-30T13:28:09;18.90;97.40
14521;DHT22;7347;50.844;4.490;2023-04-30T13:30:37;19.10;97.50
14521;DHT22;7347;50.844;4.490;2023-04-30T13:33:05;18.90;96.80
14521;DHT22;7347;50.844;4.490;2023-04-30T13:35:32;18.90;97.50
14521;DHT22;7347;50.844;4.490;2023-04-30T13:37:59;18.80;97.40
14521;DHT22;7347;50.844;4.490;2023-04-30T13:40:26;18.60;97.50
14521;DHT22;7347;50.844;4.490;2023-04-30T13:42:53;18.70;97.90
14521;DHT22;7347;50.844;4.490;2023-04-30T13:45:20;18.80;97.50
14521;DHT22;7347;50.844;4.490;2023-04-30T13:47:48;18.80;97.80
14521;DHT22;7347;50.844;4.490;2023-04-30T13:50:15;18.80;97.20
14521;DHT22;7347;50.844;4.490;2023-04-30T13:52:42;18.70;96.20
14521;DHT22;7347;50.844;4.490;2023-04-30T13:55:09;18.70;96.30
14521;DHT22;7347;50.844;4.490;2023-04-30T13:57:36;19.00;96.40
14521;DHT22;7347;50.844;4.490;2023-04-30T14:00:05;19.10;96.80
14521;DHT22;7347;50.844;4.490;2023-04-30T14:02:33;19.30;97.20
14521;DHT22;7347;50.844;4.490;2023-04-30T14:05:02;19.20;96.60
14521;DHT22;7347;50.844;4.490;2023-04-30T14:07:29;19.20;97.40
14521;DHT22;7347;50.844;4.490;2023-04-30T14:09:56;19.30;96.40
14521;DHT22;7347;50.844;4.490;2023-04-30T14:12:23;19.30;96.50
14521;DHT22;7347;50.844;4.490;2023-04-30T14:14:50;19.20;96.20
14521;DHT22;7347;50.844;4.490;2023-04-30T14:17:17;19.40;96.70
14521;DHT22;7347;50.844;4.490;2023-04-30T14:19:44;19.40;96.40
14521;DHT22;7347;50.844;4.490;2023-04-30T14:22:13;19.40;96.00
14521;DHT22;7347;50.844;4.490;2023-04-30T14:24:41;19.30;96.90
14521;DHT22;7347;50.844;4.490;2023-04-30T14:27:08;19.30;96.60
14521;DHT22;7347;50.844;4.490;2023-04-30T14:29:35;19.20;95.80
14521;DHT22;7347;50.844;4.490;2023-04-30T14:32:04;19.50;95.80
14521;DHT22;7347;50.844;4.490;2023-04-30T14:34:31;19.80;96.20
14521;DHT22;7347;50.844;4.490;2023-04-30T14:36:58;19.90;96.10
14521;DHT22;7347;50.844;4.490;2023-04-30T14:39:27;19.70;96.40
14521;DHT22;7347;50.844;4.490;2023-04-30T14:41:54;19.70;96.50
14521;DHT22;7347;50.844;4.490;2023-04-30T14:44:21;19.70;96.50
14521;DHT22;7347;50.844;4.490;2023-04-30T14:46:50;19.80;96.00
14521;DHT22;7347;50.844;4.490;2023-04-30T14:49:17;19.80;96.40
14521;DHT22;7347;50.844;4.490;2023-04-30T14:51:43;19.60;96.30
14521;DHT22;7347;50.844;4.490;2023-04-30T14:54:10;19.50;96.00
14521;DHT22;7347;50.844;4.490;2023-04-30T14:56:40;19.50;96.10
14521;DHT22;7347;50.844;4.490;2023-04-30T14:59:07;19.60;95.80
14521;DHT22;7347;50.844;4.490;2023-04-30T15:01:34;19.80;95.60
14521;DHT22;7347;50.844;4.490;2023-04-30T15:04:01;19.80;95.90
14521;DHT22;7347;50.844;4.490;2023-04-30T15:06:28;19.90;95.50
14521;DHT22;7347;50.844;4.490;2023-04-30T15:08:55;20.00;95.60
14521;DHT22;7347;50.844;4.490;2023-04-30T15:11:22;19.70;95.20
14521;DHT22;7347;50.844;4.490;2023-04-30T15:13:52;19.50;96.00
14521;DHT22;7347;50.844;4.490;2023-04-30T15:16:20;19.50;95.80
14521;DHT22;7347;50.844;4.490;2023-04-30T15:18:46;19.30;95.60
14521;DHT22;7347;50.844;4.490;2023-04-30T15:21:14;19.40;95.70
14521;DHT22;7347;50.844;4.490;2023-04-30T15:23:41;19.30;95.70
14521;DHT22;7347;50.844;4.490;2023-04-30T15:26:08;19.60;96.00
14521;DHT22;7347;50.844;4.490;2023-04-30T15:28:35;20.10;95.50
14521;DHT22;7347;50.844;4.490;2023-04-30T15:31:03;20.30;95.60
14521;DHT22;7347;50.844;4.490;2023-04-30T15:33:30;20.50;95.90
14521;DHT22;7347;50.844;4.490;2023-04-30T15:36:04;20.40;95.10
14521;DHT22;7347;50.844;4.490;2023-04-30T15:38:31;20.20;94.90
14521;DHT22;7347;50.844;4.490;2023-04-30T15:40:58;20.10;95.30
14521;DHT22;7347;50.844;4.490;2023-04-30T15:43:25;20.00;95.40
14521;DHT22;7347;50.844;4.490;2023-04-30T15:45:51;20.10;95.20
14521;DHT22;7347;50.844;4.490;2023-04-30T15:48:20;20.00;95.50
14521;DHT22;7347;50.844;4.490;2023-04-30T15:50:47;19.80;95.70
14521;DHT22;7347;50.844;4.490;2023-04-30T15:53:14;19.40;95.60
14521;DHT22;7347;50.844;4.490;2023-04-30T15:55:41;19.40;96.20
14521;DHT22;7347;50.844;4.490;2023-04-30T15:58:08;19.50;95.90
14521;DHT22;7347;50.844;4.490;2023-04-30T16:00:35;19.60;95.60
14521;DHT22;7347;50.844;4.490;2023-04-30T16:03:02;19.60;96.00
14521;DHT22;7347;50.844;4.490;2023-04-30T16:05:31;19.50;96.10
14521;DHT22;7347;50.844;4.490;2023-04-30T16:08:03;19.50;95.80
14521;DHT22;7347;50.844;4.490;2023-04-30T16:10:30;19.60;95.20
14521;DHT22;7347;50.844;4.490;2023-04-30T16:12:57;19.50;95.10
14521;DHT22;7347;50.844;4.490;2023-04-30T16:15:24;19.60;95.40
14521;DHT22;7347;50.844;4.490;2023-04-30T16:17:52;19.70;95.50
14521;DHT22;7347;50.844;4.490;2023-04-30T16:20:19;19.80;95.70
14521;DHT22;7347;50.844;4.490;2023-04-30T16:22:48;19.90;95.80
14521;DHT22;7347;50.844;4.490;2023-04-30T16:25:15;19.90;95.70
14521;DHT22;7347;50.844;4.490;2023-04-30T16:27:42;19.90;95.70
14521;DHT22;7347;50.844;4.490;2023-04-30T16:30:10;19.90;95.70
14521;DHT22;7347;50.844;4.490;2023-04-30T16:32:37;19.70;95.80
14521;DHT22;7347;50.844;4.490;2023-04-30T16:35:04;19.60;96.00
14521;DHT22;7347;50.844;4.490;2023-04-30T16:37:32;19.50;96.30
14521;DHT22;7347;50.844;4.490;2023-04-30T16:40:00;19.50;96.00
14521;DHT22;7347;50.844;4.490;2023-04-30T16:42:27;19.30;96.90
14521;DHT22;7347;50.844;4.490;2023-04-30T16:44:55;19.30;96.40
14521;DHT22;7347;50.844;4.490;2023-04-30T16:47:22;19.40;96.30
14521;DHT22;7347;50.844;4.490;2023-04-30T16:49:49;19.20;96.60
14521;DHT22;7347;50.844;4.490;2023-04-30T16:52:16;19.10;96.70
14521;DHT22;7347;50.844;4.490;2023-04-30T16:54:43;19.10;96.90
14521;DHT22;7347;50.844;4.490;2023-04-30T16:57:11;19.10;96.80
14521;DHT22;7347;50.844;4.490;2023-04-30T16:59:38;19.00;96.70
14521;DHT22;7347;50.844;4.490;2023-04-30T17:02:06;18.90;96.70
14521;DHT22;7347;50.844;4.490;2023-04-30T17:04:33;18.80;96.50
14521;DHT22;7347;50.844;4.490;2023-04-30T17:07:00;18.90;96.80
14521;DHT22;7347;50.844;4.490;2023-04-30T17:09:27;19.00;96.70
14521;DHT22;7347;50.844;4.490;2023-04-30T17:11:55;19.10;96.30
14521;DHT22;7347;50.844;4.490;2023-04-30T17:14:24;19.00;96.30
14521;DHT22;7347;50.844;4.490;2023-04-30T17:16:51;18.90;96.60
14521;DHT22;7347;50.844;4.490;2023-04-30T17:19:18;19.00;97.10
14521;DHT22;7347;50.844;4.490;2023-04-30T17:23:52;18.90;96.40
14521;DHT22;7347;50.844;4.490;2023-04-30T17:26:19;18.90;97.10
14521;DHT22;7347;50.844;4.490;2023-04-30T17:28:46;18.80;96.80
14521;DHT22;7347;50.844;4.490;2023-04-30T17:31:13;18.70;97.20
14521;DHT22;7347;50.844;4.490;2023-04-30T17:33:40;18.60;97.20
14521;DHT22;7347;50.844;4.490;2023-04-30T17:36:07;18.60;97.00
14521;DHT22;7347;50.844;4.490;2023-04-30T17:38:34;18.60;97.30
14521;DHT22;7347;50.844;4.490;2023-04-30T17:41:02;18.50;97.50
14521;DHT22;7347;50.844;4.490;2023-04-30T17:43:29;18.60;97.40
14521;DHT22;7347;50.844;4.490;2023-04-30T17:45:56;18.50;97.80
14521;DHT22;7347;50.844;4.490;2023-04-30T17:48:23;18.50;97.40
14521;DHT22;7347;50.844;4.490;2023-04-30T17:50:50;18.30;97.90
14521;DHT22;7347;50.844;4.490;2023-04-30T17:53:17;18.50;98.10
14521;DHT22;7347;50.844;4.490;2023-04-30T17:55:44;18.50;97.50
14521;DHT22;7347;50.844;4.490;2023-04-30T17:58:12;18.30;97.80
14521;DHT22;7347;50.844;4.490;2023-04-30T18:00:40;18.20;98.40
14521;DHT22;7347;50.844;4.490;2023-04-30T18:03:07;18.20;98.40
14521;DHT22;7347;50.844;4.490;2023-04-30T18:05:34;18.10;98.40
14521;DHT22;7347;50.844;4.490;2023-04-30T18:08:04;18.10;99.10
14521;DHT22;7347;50.844;4.490;2023-04-30T18:10:31;18.00;99.00
14521;DHT22;7347;50.844;4.490;2023-04-30T18:12:58;18.00;99.20
14521;DHT22;7347;50.844;4.490;2023-04-30T18:15:27;17.90;99.20
14521;DHT22;7347;50.844;4.490;2023-04-30T18:17:54;18.00;99.60
14521;DHT22;7347;50.844;4.490;2023-04-30T18:20:21;18.00;99.90
14521;DHT22;7347;50.844;4.490;2023-04-30T18:22:48;18.10;99.70
14521;DHT22;7347;50.844;4.490;2023-04-30T18:25:16;18.10;99.70
14521;DHT22;7347;50.844;4.490;2023-04-30T18:27:43;18.10;99.90
14521;DHT22;7347;50.844;4.490;2023-04-30T18:30:11;18.00;99.90
14521;DHT22;7347;50.844;4.490;2023-04-30T18:32:39;18.00;99.90
14521;DHT22;7347;50.844;4.490;2023-04-30T18:35:09;17.90;99.90
14521;DHT22;7347;50.844;4.490;2023-04-30T18:37:36;17.90;99.90
14521;DHT22;7347;50.844;4.490;2023-04-30T18:40:03;17.90;99.90
14521;DHT22;7347;50.844;4.490;2023-04-30T18:42:30;17.80;99.90
14521;DHT22;7347;50.844;4.490;2023-04-30T18:44:58;17.80;99.90
14521;DHT22;7347;50.844;4.490;2023-04-30T18:47:25;17.70;99.90
14521;DHT22;7347;50.844;4.490;2023-04-30T18:49:54;17.50;99.90
14521;DHT22;7347;50.844;4.490;2023-04-30T18:52:21;17.40;99.90
14521;DHT22;7347;50.844;4.490;2023-04-30T18:54:48;17.40;99.90
14521;DHT22;7347;50.844;4.490;2023-04-30T18:57:15;17.30;99.90
14521;DHT22;7347;50.844;4.490;2023-04-30T18:59:43;17.10;99.90
14521;DHT22;7347;50.844;4.490;2023-04-30T19:02:10;17.00;99.90
14521;DHT22;7347;50.844;4.490;2023-04-30T19:04:37;17.00;99.90
14521;DHT22;7347;50.844;4.490;2023-04-30T19:07:05;16.90;99.90
14521;DHT22;7347;50.844;4.490;2023-04-30T19:09:33;16.80;99.90
14521;DHT22;7347;50.844;4.490;2023-04-30T19:12:01;16.70;99.90
14521;DHT22;7347;50.844;4.490;2023-04-30T19:14:29;16.70;99.90
14521;DHT22;7347;50.844;4.490;2023-04-30T19:16:57;16.70;99.90
14521;DHT22;7347;50.844;4.490;2023-04-30T19:19:25;16.70;99.90
14521;DHT22;7347;50.844;4.490;2023-04-30T19:21:52;16.70;99.90
14521;DHT22;7347;50.844;4.490;2023-04-30T19:24:20;16.70;99.90
14521;DHT22;7347;50.844;4.490;2023-04-30T19:26:48;16.60;99.90
14521;DHT22;7347;50.844;4.490;2023-04-30T19:29:16;16.60;99.90
14521;DHT22;7347;50.844;4.490;2023-04-30T19:31:43;16.60;99.90
14521;DHT22;7347;50.844;4.490;2023-04-30T19:34:10;16.50;99.90
14521;DHT22;7347;50.844;4.490;2023-04-30T19:36:38;16.40;99.90
14521;DHT22;7347;50.844;4.490;2023-04-30T19:39:05;16.40;99.90
14521;DHT22;7347;50.844;4.490;2023-04-30T19:41:37;16.30;99.90
14521;DHT22;7347;50.844;4.490;2023-04-30T19:44:04;16.30;99.90
14521;DHT22;7347;50.844;4.490;2023-04-30T19:46:32;16.30;99.90
14521;DHT22;7347;50.844;4.490;2023-04-30T19:48:59;16.20;99.90
14521;DHT22;7347;50.844;4.490;2023-04-30T19:51:26;16.20;99.90
14521;DHT22;7347;50.844;4.490;2023-04-30T19:53:53;16.20;99.90
14521;DHT22;7347;50.844;4.490;2023-04-30T19:56:20;16.20;99.90
14521;DHT22;7347;50.844;4.490;2023-04-30T19:58:49;16.20;99.90
14521;DHT22;7347;50.844;4.490;2023-04-30T20:01:16;16.20;99.90
14521;DHT22;7347;50.844;4.490;2023-04-30T20:03:43;16.30;99.90
14521;DHT22;7347;50.844;4.490;2023-04-30T20:06:10;16.30;99.90
14521;DHT22;7347;50.844;4.490;2023-04-30T20:08:37;16.30;99.90
14521;DHT22;7347;50.844;4.490;2023-04-30T20:11:04;16.40;99.90
14521;DHT22;7347;50.844;4.490;2023-04-30T20:13:31;16.30;99.90
14521;DHT22;7347;50.844;4.490;2023-04-30T20:15:59;16.40;99.90
14521;DHT22;7347;50.844;4.490;2023-04-30T20:18:26;16.30;99.90
14521;DHT22;7347;50.844;4.490;2023-04-30T20:20:55;16.30;99.90
14521;DHT22;7347;50.844;4.490;2023-04-30T20:23:23;16.30;99.90
14521;DHT22;7347;50.844;4.490;2023-04-30T20:25:49;16.40;99.90
14521;DHT22;7347;50.844;4.490;2023-04-30T20:28:17;16.40;99.90
14521;DHT22;7347;50.844;4.490;2023-04-30T20:30:44;16.30;99.90
14521;DHT22;7347;50.844;4.490;2023-04-30T20:33:14;16.10;99.90
14521;DHT22;7347;50.844;4.490;2023-04-30T20:35:41;16.00;99.90
14521;DHT22;7347;50.844;4.490;2023-04-30T20:38:10;16.00;99.90
14521;DHT22;7347;50.844;4.490;2023-04-30T20:40:37;16.10;99.90
14521;DHT22;7347;50.844;4.490;2023-04-30T20:43:05;16.00;99.90
14521;DHT22;7347;50.844;4.490;2023-04-30T20:45:32;15.90;99.90
14521;DHT22;7347;50.844;4.490;2023-04-30T20:47:59;15.80;99.90
14521;DHT22;7347;50.844;4.490;2023-04-30T20:50:28;15.60;99.90
14521;DHT22;7347;50.844;4.490;2023-04-30T20:52:55;15.50;99.90
14521;DHT22;7347;50.844;4.490;2023-04-30T20:55:22;15.40;99.90
14521;DHT22;7347;50.844;4.490;2023-04-30T20:57:49;15.50;99.90
14521;DHT22;7347;50.844;4.490;2023-04-30T21:00:16;15.40;99.90
14521;DHT22;7347;50.844;4.490;2023-04-30T21:02:43;15.40;99.90
14521;DHT22;7347;50.844;4.490;2023-04-30T21:05:10;15.30;99.90
14521;DHT22;7347;50.844;4.490;2023-04-30T21:07:38;15.30;99.90
14521;DHT22;7347;50.844;4.490;2023-04-30T21:10:06;15.20;99.90
14521;DHT22;7347;50.844;4.490;2023-04-30T21:12:33;15.20;99.90
14521;DHT22;7347;50.844;4.490;2023-04-30T21:15:00;15.10;99.90
14521;DHT22;7347;50.844;4.490;2023-04-30T21:17:29;15.00;99.90
14521;DHT22;7347;50.844;4.490;2023-04-30T21:19:56;15.00;99.90
14521;DHT22;7347;50.844;4.490;2023-04-30T21:22:27;15.00;99.90
